sensor_id;sensor_type;location;lat;lon;timestamp;temperature;humidity
15343;DHT22;7771;48.478;8.936;2022-08-02T00:01:11;20.40;99.90
15343;DHT22;7771;48.478;8.936;2022-08-02T00:03:38;20.40;99.90
15343;DHT22;7771;48.478;8.936;2022-08-02T00:06:05;20.30;99.90
15343;DHT22;7771;48.478;8.936;2022-08-02T00:08:31;20.30;99.90
15343;DHT22;7771;48.478;8.936;2022-08-02T00:10:58;20.30;99.90
15343;DHT22;7771;48.478;8.936;2022-08-02T00:13:25;20.30;99.90
15343;DHT22;7771;48.478;8.936;2022-08-02T00:15:52;20.30;99.90
15343;DHT22;7771;48.478;8.936;2022-08-02T00:18:18;20.20;99.90
15343;DHT22;7771;48.478;8.936;2022-08-02T00:20:45;20.20;99.90
15343;DHT22;7771;48.478;8.936;2022-08-02T00:23:12;20.20;99.90
15343;DHT22;7771;48.478;8.936;2022-08-02T00:25:39;20.20;99.90
15343;DHT22;7771;48.478;8.936;2022-08-02T00:28:05;20.10;99.90
15343;DHT22;7771;48.478;8.936;2022-08-02T00:30:32;20.20;99.90
15343;DHT22;7771;48.478;8.936;2022-08-02T00:32:59;20.10;99.90
15343;DHT22;7771;48.478;8.936;2022-08-02T00:35:26;20.20;99.90
15343;DHT22;7771;48.478;8.936;2022-08-02T00:37:52;20.30;99.90
15343;DHT22;7771;48.478;8.936;2022-08-02T00:40:20;20.30;99.90
15343;DHT22;7771;48.478;8.936;2022-08-02T00:42:47;20.30;99.90
15343;DHT22;7771;48.478;8.936;2022-08-02T00:45:14;20.40;99.90
15343;DHT22;7771;48.478;8.936;2022-08-02T00:47:40;20.40;99.90
15343;DHT22;7771;48.478;8.936;2022-08-02T00:50:07;20.40;99.90
15343;DHT22;7771;48.478;8.936;2022-08-02T00:52:34;20.40;99.90
15343;DHT22;7771;48.478;8.936;2022-08-02T00:55:01;20.30;99.90
15343;DHT22;7771;48.478;8.936;2022-08-02T00:57:28;20.30;99.90
15343;DHT22;7771;48.478;8.936;2022-08-02T00:59:54;20.30;99.90
15343;DHT22;7771;48.478;8.936;2022-08-02T01:02:22;20.20;99.90
15343;DHT22;7771;48.478;8.936;2022-08-02T01:04:49;20.20;99.90
15343;DHT22;7771;48.478;8.936;2022-08-02T01:07:17;20.20;99.90
15343;DHT22;7771;48.478;8.936;2022-08-02T01:09:44;20.20;99.90
15343;DHT22;7771;48.478;8.936;2022-08-02T01:12:11;20.10;99.90
15343;DHT22;7771;48.478;8.936;2022-08-02T01:14:40;20.10;99.90
15343;DHT22;7771;48.478;8.936;2022-08-02T01:17:12;20.10;99.90
15343;DHT22;7771;48.478;8.936;2022-08-02T01:19:41;20.10;99.90
15343;DHT22;7771;48.478;8.936;2022-08-02T01:24:55;20.10;99.90
15343;DHT22;7771;48.478;8.936;2022-08-02T01:27:32;20.10;99.90
15343;DHT22;7771;48.478;8.936;2022-08-02T01:29:55;20.10;99.90
15343;DHT22;7771;48.478;8.936;2022-08-02T01:32:24;20.00;99.90
15343;DHT22;7771;48.478;8.936;2022-08-02T01:34:55;20.00;99.90
15343;DHT22;7771;48.478;8.936;2022-08-02T01:37:21;20.00;99.90
15343;DHT22;7771;48.478;8.936;2022-08-02T01:39:50;20.00;99.90
15343;DHT22;7771;48.478;8.936;2022-08-02T01:42:15;19.90;99.90
15343;DHT22;7771;48.478;8.936;2022-08-02T01:44:41;19.90;99.90
15343;DHT22;7771;48.478;8.936;2022-08-02T01:47:10;19.80;99.90
15343;DHT22;7771;48.478;8.936;2022-08-02T01:49:36;19.90;99.90
15343;DHT22;7771;48.478;8.936;2022-08-02T01:52:02;19.80;99.90
15343;DHT22;7771;48.478;8.936;2022-08-02T01:54:35;19.80;99.90
15343;DHT22;7771;48.478;8.936;2022-08-02T01:57:03;19.70;99.90
15343;DHT22;7771;48.478;8.936;2022-08-02T01:59:29;19.70;99.90
15343;DHT22;7771;48.478;8.936;2022-08-02T02:01:56;19.70;99.90
15343;DHT22;7771;48.478;8.936;2022-08-02T02:04:24;19.60;99.90
15343;DHT22;7771;48.478;8.936;2022-08-02T02:06:51;19.60;99.90
15343;DHT22;7771;48.478;8.936;2022-08-02T02:09:18;19.60;99.90
15343;DHT22;7771;48.478;8.936;2022-08-02T02:11:45;19.60;99.90
15343;DHT22;7771;48.478;8.936;2022-08-02T02:14:12;19.60;99.90
15343;DHT22;7771;48.478;8.936;2022-08-02T02:16:39;19.50;99.90
15343;DHT22;7771;48.478;8.936;2022-08-02T02:19:06;19.50;99.90
15343;DHT22;7771;48.478;8.936;2022-08-02T02:21:33;19.50;99.90
15343;DHT22;7771;48.478;8.936;2022-08-02T02:24:00;19.50;99.90
15343;DHT22;7771;48.478;8.936;2022-08-02T02:26:28;19.50;99.90
15343;DHT22;7771;48.478;8.936;2022-08-02T02:28:56;19.50;99.90
15343;DHT22;7771;48.478;8.936;2022-08-02T02:31:23;19.50;99.90
15343;DHT22;7771;48.478;8.936;2022-08-02T02:33:55;19.40;99.90
15343;DHT22;7771;48.478;8.936;2022-08-02T02:36:20;19.40;99.90
15343;DHT22;7771;48.478;8.936;2022-08-02T02:38:46;19.40;99.90
15343;DHT22;7771;48.478;8.936;2022-08-02T02:41:13;19.40;99.90
15343;DHT22;7771;48.478;8.936;2022-08-02T02:43:41;19.40;99.90
15343;DHT22;7771;48.478;8.936;2022-08-02T02:46:10;19.40;99.90
15343;DHT22;7771;48.478;8.936;2022-08-02T02:48:40;19.40;99.90
15343;DHT22;7771;48.478;8.936;2022-08-02T02:51:08;19.40;99.90
15343;DHT22;7771;48.478;8.936;2022-08-02T02:53:36;19.40;99.90
15343;DHT22;7771;48.478;8.936;2022-08-02T02:56:03;19.40;99.90
15343;DHT22;7771;48.478;8.936;2022-08-02T02:58:32;19.40;99.90
15343;DHT22;7771;48.478;8.936;2022-08-02T03:01:02;19.40;99.90
15343;DHT22;7771;48.478;8.936;2022-08-02T03:03:36;19.30;99.90
15343;DHT22;7771;48.478;8.936;2022-08-02T03:06:04;19.20;99.90
15343;DHT22;7771;48.478;8.936;2022-08-02T03:08:33;19.20;99.90
15343;DHT22;7771;48.478;8.936;2022-08-02T03:11:04;19.10;99.90
15343;DHT22;7771;48.478;8.936;2022-08-02T03:13:33;19.10;99.90
15343;DHT22;7771;48.478;8.936;2022-08-02T03:16:02;19.10;99.90
15343;DHT22;7771;48.478;8.936;2022-08-02T03:18:34;19.10;99.90
15343;DHT22;7771;48.478;8.936;2022-08-02T03:21:03;19.00;99.90
15343;DHT22;7771;48.478;8.936;2022-08-02T03:23:30;19.00;99.90
15343;DHT22;7771;48.478;8.936;2022-08-02T03:26:01;19.00;99.90
15343;DHT22;7771;48.478;8.936;2022-08-02T03:28:30;19.00;99.90
15343;DHT22;7771;48.478;8.936;2022-08-02T03:30:58;19.00;99.90
15343;DHT22;7771;48.478;8.936;2022-08-02T03:33:26;19.00;99.90
15343;DHT22;7771;48.478;8.936;2022-08-02T03:35:54;19.00;99.90
15343;DHT22;7771;48.478;8.936;2022-08-02T04:57:49;19.10;99.90
15343;DHT22;7771;48.478;8.936;2022-08-02T05:00:21;19.00;99.90
15343;DHT22;7771;48.478;8.936;2022-08-02T05:02:49;19.00;99.90
15343;DHT22;7771;48.478;8.936;2022-08-02T05:05:16;19.00;99.90
15343;DHT22;7771;48.478;8.936;2022-08-02T05:24:20;19.20;99.90
15343;DHT22;7771;48.478;8.936;2022-08-02T05:26:47;19.20;99.90
15343;DHT22;7771;48.478;8.936;2022-08-02T05:29:15;19.30;99.90
15343;DHT22;7771;48.478;8.936;2022-08-02T05:31:42;19.30;99.90
15343;DHT22;7771;48.478;8.936;2022-08-02T05:34:09;19.40;99.90
15343;DHT22;7771;48.478;8.936;2022-08-02T05:36:36;19.50;99.90
15343;DHT22;7771;48.478;8.936;2022-08-02T05:39:03;19.50;99.90
15343;DHT22;7771;48.478;8.936;2022-08-02T05:41:29;19.60;99.90
15343;DHT22;7771;48.478;8.936;2022-08-02T05:43:56;19.60;99.90
15343;DHT22;7771;48.478;8.936;2022-08-02T05:46:23;19.70;99.90
15343;DHT22;7771;48.478;8.936;2022-08-02T05:48:51;19.70;99.90
15343;DHT22;7771;48.478;8.936;2022-08-02T05:51:27;19.70;99.90
15343;DHT22;7771;48.478;8.936;2022-08-02T05:53:53;19.80;99.90
15343;DHT22;7771;48.478;8.936;2022-08-02T05:56:22;19.90;99.90
15343;DHT22;7771;48.478;8.936;2022-08-02T05:58:55;20.00;99.90
15343;DHT22;7771;48.478;8.936;2022-08-02T06:01:21;20.00;99.90
15343;DHT22;7771;48.478;8.936;2022-08-02T06:03:50;20.00;99.90
15343;DHT22;7771;48.478;8.936;2022-08-02T06:06:18;20.10;99.90
15343;DHT22;7771;48.478;8.936;2022-08-02T06:08:45;20.10;99.90
15343;DHT22;7771;48.478;8.936;2022-08-02T06:11:13;20.10;99.90
15343;DHT22;7771;48.478;8.936;2022-08-02T06:13:40;20.10;99.90
15343;DHT22;7771;48.478;8.936;2022-08-02T06:16:07;20.10;99.90
15343;DHT22;7771;48.478;8.936;2022-08-02T06:18:33;20.10;99.90
15343;DHT22;7771;48.478;8.936;2022-08-02T06:21:01;20.10;99.90
15343;DHT22;7771;48.478;8.936;2022-08-02T06:23:27;20.10;99.90
15343;DHT22;7771;48.478;8.936;2022-08-02T06:25:53;20.20;99.90
15343;DHT22;7771;48.478;8.936;2022-08-02T06:36:39;20.50;99.90
15343;DHT22;7771;48.478;8.936;2022-08-02T06:39:07;20.50;99.90
15343;DHT22;7771;48.478;8.936;2022-08-02T06:41:35;20.60;99.90
15343;DHT22;7771;48.478;8.936;2022-08-02T06:43:59;20.70;99.90
15343;DHT22;7771;48.478;8.936;2022-08-02T06:46:25;20.80;99.90
15343;DHT22;7771;48.478;8.936;2022-08-02T06:48:52;20.90;99.90
15343;DHT22;7771;48.478;8.936;2022-08-02T06:51:18;21.00;99.90
15343;DHT22;7771;48.478;8.936;2022-08-02T06:53:46;21.10;99.90
15343;DHT22;7771;48.478;8.936;2022-08-02T06:56:13;21.20;99.90
15343;DHT22;7771;48.478;8.936;2022-08-02T06:58:39;21.30;99.90
15343;DHT22;7771;48.478;8.936;2022-08-02T07:01:06;21.40;99.90
15343;DHT22;7771;48.478;8.936;2022-08-02T07:06:13;21.60;99.90
15343;DHT22;7771;48.478;8.936;2022-08-02T07:08:40;21.90;99.90
15343;DHT22;7771;48.478;8.936;2022-08-02T08:09:53;35.20;72.00
15343;DHT22;7771;48.478;8.936;2022-08-02T08:12:20;35.10;72.30
15343;DHT22;7771;48.478;8.936;2022-08-02T08:14:46;34.50;73.10
15343;DHT22;7771;48.478;8.936;2022-08-02T08:17:13;33.70;73.70
15343;DHT22;7771;48.478;8.936;2022-08-02T08:19:39;32.90;75.30
15343;DHT22;7771;48.478;8.936;2022-08-02T08:22:06;32.00;76.20
15343;DHT22;7771;48.478;8.936;2022-08-02T08:24:33;30.60;81.40
15343;DHT22;7771;48.478;8.936;2022-08-02T08:27:00;30.20;81.80
15343;DHT22;7771;48.478;8.936;2022-08-02T08:29:27;30.10;82.20
15343;DHT22;7771;48.478;8.936;2022-08-02T08:31:55;29.80;84.00
15343;DHT22;7771;48.478;8.936;2022-08-02T08:34:21;29.80;84.00
15343;DHT22;7771;48.478;8.936;2022-08-02T08:36:48;29.50;85.70
15343;DHT22;7771;48.478;8.936;2022-08-02T08:39:15;29.40;86.50
15343;DHT22;7771;48.478;8.936;2022-08-02T08:41:42;29.40;88.10
15343;DHT22;7771;48.478;8.936;2022-08-02T08:44:09;29.50;87.80
15343;DHT22;7771;48.478;8.936;2022-08-02T08:46:37;29.50;87.60
15343;DHT22;7771;48.478;8.936;2022-08-02T08:49:06;29.50;87.20
15343;DHT22;7771;48.478;8.936;2022-08-02T08:51:36;29.60;86.60
15343;DHT22;7771;48.478;8.936;2022-08-02T08:54:02;29.60;86.60
15343;DHT22;7771;48.478;8.936;2022-08-02T08:56:32;29.70;87.30
15343;DHT22;7771;48.478;8.936;2022-08-02T08:58:57;29.70;88.00
15343;DHT22;7771;48.478;8.936;2022-08-02T09:01:23;29.70;86.50
15343;DHT22;7771;48.478;8.936;2022-08-02T09:03:50;29.80;86.50
15343;DHT22;7771;48.478;8.936;2022-08-02T09:06:16;29.70;86.10
15343;DHT22;7771;48.478;8.936;2022-08-02T09:08:43;29.80;85.90
15343;DHT22;7771;48.478;8.936;2022-08-02T09:11:14;29.90;86.10
15343;DHT22;7771;48.478;8.936;2022-08-02T09:16:13;29.90;86.20
15343;DHT22;7771;48.478;8.936;2022-08-02T09:18:41;30.10;86.00
15343;DHT22;7771;48.478;8.936;2022-08-02T09:21:07;30.10;84.90
15343;DHT22;7771;48.478;8.936;2022-08-02T09:23:35;30.10;83.10
15343;DHT22;7771;48.478;8.936;2022-08-02T09:26:02;30.20;83.70
15343;DHT22;7771;48.478;8.936;2022-08-02T09:28:30;30.30;83.50
15343;DHT22;7771;48.478;8.936;2022-08-02T09:30:56;30.30;83.50
15343;DHT22;7771;48.478;8.936;2022-08-02T09:33:25;30.30;83.30
15343;DHT22;7771;48.478;8.936;2022-08-02T09:35:57;30.30;82.70
15343;DHT22;7771;48.478;8.936;2022-08-02T09:38:18;30.30;82.70
15343;DHT22;7771;48.478;8.936;2022-08-02T09:40:45;30.20;83.30
15343;DHT22;7771;48.478;8.936;2022-08-02T09:43:11;30.20;83.70
15343;DHT22;7771;48.478;8.936;2022-08-02T09:45:38;30.30;82.40
15343;DHT22;7771;48.478;8.936;2022-08-02T09:48:06;30.30;81.40
15343;DHT22;7771;48.478;8.936;2022-08-02T09:50:34;30.40;81.10
15343;DHT22;7771;48.478;8.936;2022-08-02T09:53:00;30.40;80.60
15343;DHT22;7771;48.478;8.936;2022-08-02T09:55:27;30.40;81.10
15343;DHT22;7771;48.478;8.936;2022-08-02T09:57:53;30.50;79.80
15343;DHT22;7771;48.478;8.936;2022-08-02T10:00:20;30.50;80.30
15343;DHT22;7771;48.478;8.936;2022-08-02T10:05:28;30.60;78.10
15343;DHT22;7771;48.478;8.936;2022-08-02T10:07:52;30.60;78.00
15343;DHT22;7771;48.478;8.936;2022-08-02T10:10:19;30.70;78.40
15343;DHT22;7771;48.478;8.936;2022-08-02T10:12:51;30.70;78.80
15343;DHT22;7771;48.478;8.936;2022-08-02T10:15:19;30.80;78.40
15343;DHT22;7771;48.478;8.936;2022-08-02T10:17:45;30.80;77.60
15343;DHT22;7771;48.478;8.936;2022-08-02T10:20:12;30.80;78.20
15343;DHT22;7771;48.478;8.936;2022-08-02T10:22:39;30.80;76.00
15343;DHT22;7771;48.478;8.936;2022-08-02T10:25:06;30.70;76.70
15343;DHT22;7771;48.478;8.936;2022-08-02T10:27:33;30.70;76.60
15343;DHT22;7771;48.478;8.936;2022-08-02T10:30:00;30.60;77.10
15343;DHT22;7771;48.478;8.936;2022-08-02T10:32:29;30.50;77.20
15343;DHT22;7771;48.478;8.936;2022-08-02T10:35:01;30.40;77.50
15343;DHT22;7771;48.478;8.936;2022-08-02T10:37:27;30.40;76.30
15343;DHT22;7771;48.478;8.936;2022-08-02T10:39:55;30.30;76.80
15343;DHT22;7771;48.478;8.936;2022-08-02T10:42:47;30.30;76.50
15343;DHT22;7771;48.478;8.936;2022-08-02T10:45:14;30.30;76.50
15343;DHT22;7771;48.478;8.936;2022-08-02T10:50:19;30.20;76.20
15343;DHT22;7771;48.478;8.936;2022-08-02T10:52:45;30.30;76.70
15343;DHT22;7771;48.478;8.936;2022-08-02T10:55:12;30.30;75.90
15343;DHT22;7771;48.478;8.936;2022-08-02T10:57:39;30.30;76.00
15343;DHT22;7771;48.478;8.936;2022-08-02T11:00:10;30.40;75.20
15343;DHT22;7771;48.478;8.936;2022-08-02T11:02:37;30.40;75.40
15343;DHT22;7771;48.478;8.936;2022-08-02T11:05:07;30.40;76.10
15343;DHT22;7771;48.478;8.936;2022-08-02T11:07:37;30.40;76.20
15343;DHT22;7771;48.478;8.936;2022-08-02T11:13:14;30.50;74.00
15343;DHT22;7771;48.478;8.936;2022-08-02T11:15:50;30.60;73.30
15343;DHT22;7771;48.478;8.936;2022-08-02T11:18:16;30.50;70.80
15343;DHT22;7771;48.478;8.936;2022-08-02T11:20:42;30.50;71.00
15343;DHT22;7771;48.478;8.936;2022-08-02T11:25:48;30.60;71.70
15343;DHT22;7771;48.478;8.936;2022-08-02T11:28:15;30.60;70.50
15343;DHT22;7771;48.478;8.936;2022-08-02T11:30:41;30.70;70.90
15343;DHT22;7771;48.478;8.936;2022-08-02T11:33:08;30.80;71.60
15343;DHT22;7771;48.478;8.936;2022-08-02T11:35:36;30.80;71.30
15343;DHT22;7771;48.478;8.936;2022-08-02T11:38:11;30.80;71.50
15343;DHT22;7771;48.478;8.936;2022-08-02T11:40:37;30.80;72.60
15343;DHT22;7771;48.478;8.936;2022-08-02T11:43:14;30.80;73.20
15343;DHT22;7771;48.478;8.936;2022-08-02T11:45:32;31.10;72.00
15343;DHT22;7771;48.478;8.936;2022-08-02T11:47:58;31.10;72.60
15343;DHT22;7771;48.478;8.936;2022-08-02T11:50:25;31.30;71.20
15343;DHT22;7771;48.478;8.936;2022-08-02T11:52:52;31.30;71.20
15343;DHT22;7771;48.478;8.936;2022-08-02T11:55:27;31.20;71.10
15343;DHT22;7771;48.478;8.936;2022-08-02T11:58:00;31.20;71.20
15343;DHT22;7771;48.478;8.936;2022-08-02T12:00:26;31.20;71.20
15343;DHT22;7771;48.478;8.936;2022-08-02T12:02:53;31.20;71.80
15343;DHT22;7771;48.478;8.936;2022-08-02T12:05:21;31.20;71.60
15343;DHT22;7771;48.478;8.936;2022-08-02T12:07:49;31.30;70.80
15343;DHT22;7771;48.478;8.936;2022-08-02T12:10:19;31.30;71.00
15343;DHT22;7771;48.478;8.936;2022-08-02T12:12:47;31.40;70.80
15343;DHT22;7771;48.478;8.936;2022-08-02T12:15:13;31.40;70.50
15343;DHT22;7771;48.478;8.936;2022-08-02T12:17:39;31.40;71.00
15343;DHT22;7771;48.478;8.936;2022-08-02T12:20:11;31.60;69.50
15343;DHT22;7771;48.478;8.936;2022-08-02T12:22:39;31.60;69.20
15343;DHT22;7771;48.478;8.936;2022-08-02T12:25:18;31.60;69.00
15343;DHT22;7771;48.478;8.936;2022-08-02T12:27:43;31.60;69.00
15343;DHT22;7771;48.478;8.936;2022-08-02T12:30:11;31.60;68.10
15343;DHT22;7771;48.478;8.936;2022-08-02T12:32:37;31.60;68.60
15343;DHT22;7771;48.478;8.936;2022-08-02T12:35:10;31.60;68.30
15343;DHT22;7771;48.478;8.936;2022-08-02T12:37:39;31.70;69.60
15343;DHT22;7771;48.478;8.936;2022-08-02T12:42:45;31.80;68.00
15343;DHT22;7771;48.478;8.936;2022-08-02T12:45:11;31.80;67.00
15343;DHT22;7771;48.478;8.936;2022-08-02T12:47:46;31.80;67.20
15343;DHT22;7771;48.478;8.936;2022-08-02T12:50:14;31.80;66.90
15343;DHT22;7771;48.478;8.936;2022-08-02T12:52:39;31.80;67.30
15343;DHT22;7771;48.478;8.936;2022-08-02T12:55:24;31.80;67.80
15343;DHT22;7771;48.478;8.936;2022-08-02T12:57:52;31.70;67.90
15343;DHT22;7771;48.478;8.936;2022-08-02T13:03:08;31.80;67.30
15343;DHT22;7771;48.478;8.936;2022-08-02T13:05:35;31.80;67.60
15343;DHT22;7771;48.478;8.936;2022-08-02T13:08:02;31.80;67.30
15343;DHT22;7771;48.478;8.936;2022-08-02T13:10:28;31.80;67.20
15343;DHT22;7771;48.478;8.936;2022-08-02T13:12:55;31.90;66.90
15343;DHT22;7771;48.478;8.936;2022-08-02T13:15:21;32.00;67.50
15343;DHT22;7771;48.478;8.936;2022-08-02T13:17:49;32.10;68.00
15343;DHT22;7771;48.478;8.936;2022-08-02T13:20:16;32.10;66.80
15343;DHT22;7771;48.478;8.936;2022-08-02T13:22:43;32.20;67.10
15343;DHT22;7771;48.478;8.936;2022-08-02T13:25:11;32.30;66.80
15343;DHT22;7771;48.478;8.936;2022-08-02T13:27:38;32.40;66.80
15343;DHT22;7771;48.478;8.936;2022-08-02T13:30:06;32.50;66.20
15343;DHT22;7771;48.478;8.936;2022-08-02T13:32:32;32.50;65.70
15343;DHT22;7771;48.478;8.936;2022-08-02T13:34:59;32.60;65.30
15343;DHT22;7771;48.478;8.936;2022-08-02T13:37:26;32.70;66.10
15343;DHT22;7771;48.478;8.936;2022-08-02T13:39:52;32.70;65.70
15343;DHT22;7771;48.478;8.936;2022-08-02T13:42:19;32.70;64.20
15343;DHT22;7771;48.478;8.936;2022-08-02T13:44:46;32.60;64.70
15343;DHT22;7771;48.478;8.936;2022-08-02T13:47:13;32.50;64.70
15343;DHT22;7771;48.478;8.936;2022-08-02T13:49:40;32.50;65.30
15343;DHT22;7771;48.478;8.936;2022-08-02T13:52:06;32.30;64.70
15343;DHT22;7771;48.478;8.936;2022-08-02T13:54:33;32.30;65.20
15343;DHT22;7771;48.478;8.936;2022-08-02T13:57:00;32.00;65.60
15343;DHT22;7771;48.478;8.936;2022-08-02T13:59:28;32.10;65.90
15343;DHT22;7771;48.478;8.936;2022-08-02T14:01:55;32.10;66.30
15343;DHT22;7771;48.478;8.936;2022-08-02T14:04:22;32.10;66.30
15343;DHT22;7771;48.478;8.936;2022-08-02T14:06:48;32.20;66.20
15343;DHT22;7771;48.478;8.936;2022-08-02T14:09:15;32.30;66.00
15343;DHT22;7771;48.478;8.936;2022-08-02T14:11:41;32.30;66.40
15343;DHT22;7771;48.478;8.936;2022-08-02T14:14:08;32.30;66.00
15343;DHT22;7771;48.478;8.936;2022-08-02T14:16:34;32.30;65.00
15343;DHT22;7771;48.478;8.936;2022-08-02T14:19:01;32.30;65.60
15343;DHT22;7771;48.478;8.936;2022-08-02T14:21:28;32.20;65.90
15343;DHT22;7771;48.478;8.936;2022-08-02T14:23:54;32.10;66.40
15343;DHT22;7771;48.478;8.936;2022-08-02T14:26:22;32.10;66.30
15343;DHT22;7771;48.478;8.936;2022-08-02T14:28:49;32.20;66.20
15343;DHT22;7771;48.478;8.936;2022-08-02T14:31:16;32.30;66.20
15343;DHT22;7771;48.478;8.936;2022-08-02T14:33:44;32.30;66.10
15343;DHT22;7771;48.478;8.936;2022-08-02T14:36:11;32.30;66.10
15343;DHT22;7771;48.478;8.936;2022-08-02T14:38:38;32.20;66.30
15343;DHT22;7771;48.478;8.936;2022-08-02T14:41:06;32.20;66.40
15343;DHT22;7771;48.478;8.936;2022-08-02T14:43:33;32.20;66.00
15343;DHT22;7771;48.478;8.936;2022-08-02T14:46:05;32.20;66.00
15343;DHT22;7771;48.478;8.936;2022-08-02T14:48:32;32.10;65.60
15343;DHT22;7771;48.478;8.936;2022-08-02T14:50:58;32.00;65.60
15343;DHT22;7771;48.478;8.936;2022-08-02T14:53:25;32.00;66.20
15343;DHT22;7771;48.478;8.936;2022-08-02T14:55:52;32.00;66.90
15343;DHT22;7771;48.478;8.936;2022-08-02T14:58:18;32.00;66.60
15343;DHT22;7771;48.478;8.936;2022-08-02T15:00:46;32.00;66.80
15343;DHT22;7771;48.478;8.936;2022-08-02T15:03:13;32.10;67.10
15343;DHT22;7771;48.478;8.936;2022-08-02T15:05:40;32.20;66.90
15343;DHT22;7771;48.478;8.936;2022-08-02T15:08:08;32.20;67.00
15343;DHT22;7771;48.478;8.936;2022-08-02T15:10:35;32.10;67.10
15343;DHT22;7771;48.478;8.936;2022-08-02T15:13:02;32.00;67.10
15343;DHT22;7771;48.478;8.936;2022-08-02T15:15:30;32.00;67.10
15343;DHT22;7771;48.478;8.936;2022-08-02T15:17:57;32.00;67.00
15343;DHT22;7771;48.478;8.936;2022-08-02T15:20:24;32.00;67.20
15343;DHT22;7771;48.478;8.936;2022-08-02T15:22:51;32.00;67.20
15343;DHT22;7771;48.478;8.936;2022-08-02T15:25:18;32.00;67.00
15343;DHT22;7771;48.478;8.936;2022-08-02T15:27:44;32.00;67.60
15343;DHT22;7771;48.478;8.936;2022-08-02T15:30:12;31.90;67.10
15343;DHT22;7771;48.478;8.936;2022-08-02T15:32:38;31.90;66.60
15343;DHT22;7771;48.478;8.936;2022-08-02T15:35:05;31.70;67.30
15343;DHT22;7771;48.478;8.936;2022-08-02T15:37:33;31.70;68.00
15343;DHT22;7771;48.478;8.936;2022-08-02T15:39:59;31.70;68.00
15343;DHT22;7771;48.478;8.936;2022-08-02T15:42:26;31.60;67.80
15343;DHT22;7771;48.478;8.936;2022-08-02T15:44:53;31.60;67.80
15343;DHT22;7771;48.478;8.936;2022-08-02T15:47:19;31.60;68.40
15343;DHT22;7771;48.478;8.936;2022-08-02T15:49:46;31.40;68.10
15343;DHT22;7771;48.478;8.936;2022-08-02T15:52:13;31.40;68.40
15343;DHT22;7771;48.478;8.936;2022-08-02T15:54:39;31.30;68.10
15343;DHT22;7771;48.478;8.936;2022-08-02T15:57:06;31.30;68.60
15343;DHT22;7771;48.478;8.936;2022-08-02T15:59:34;31.20;68.40
15343;DHT22;7771;48.478;8.936;2022-08-02T16:02:01;31.10;68.60
15343;DHT22;7771;48.478;8.936;2022-08-02T16:04:28;31.00;69.10
15343;DHT22;7771;48.478;8.936;2022-08-02T16:06:56;31.00;69.10
15343;DHT22;7771;48.478;8.936;2022-08-02T16:09:23;30.90;69.20
15343;DHT22;7771;48.478;8.936;2022-08-02T16:11:51;30.90;69.30
15343;DHT22;7771;48.478;8.936;2022-08-02T16:14:17;30.90;69.10
15343;DHT22;7771;48.478;8.936;2022-08-02T16:16:44;30.90;68.50
15343;DHT22;7771;48.478;8.936;2022-08-02T16:19:10;30.80;69.00
15343;DHT22;7771;48.478;8.936;2022-08-02T16:21:37;30.70;69.50
15343;DHT22;7771;48.478;8.936;2022-08-02T16:24:04;30.70;70.00
15343;DHT22;7771;48.478;8.936;2022-08-02T16:26:31;30.70;71.10
15343;DHT22;7771;48.478;8.936;2022-08-02T16:28:59;30.90;70.40
15343;DHT22;7771;48.478;8.936;2022-08-02T16:31:26;31.50;69.20
15343;DHT22;7771;48.478;8.936;2022-08-02T16:33:53;32.00;67.60
15343;DHT22;7771;48.478;8.936;2022-08-02T16:39:07;31.80;66.80
15343;DHT22;7771;48.478;8.936;2022-08-02T16:41:34;31.60;68.20
15343;DHT22;7771;48.478;8.936;2022-08-02T16:44:01;31.30;68.60
15343;DHT22;7771;48.478;8.936;2022-08-02T16:46:28;31.00;68.40
15343;DHT22;7771;48.478;8.936;2022-08-02T16:48:54;30.90;68.80
15343;DHT22;7771;48.478;8.936;2022-08-02T16:51:22;30.60;70.00
15343;DHT22;7771;48.478;8.936;2022-08-02T16:53:49;30.60;70.10
15343;DHT22;7771;48.478;8.936;2022-08-02T16:56:16;30.40;70.50
15343;DHT22;7771;48.478;8.936;2022-08-02T16:58:43;30.40;70.80
15343;DHT22;7771;48.478;8.936;2022-08-02T17:01:10;30.20;70.50
15343;DHT22;7771;48.478;8.936;2022-08-02T17:03:37;30.10;71.30
15343;DHT22;7771;48.478;8.936;2022-08-02T17:06:04;30.00;72.30
15343;DHT22;7771;48.478;8.936;2022-08-02T17:08:32;29.90;72.80
15343;DHT22;7771;48.478;8.936;2022-08-02T17:10:59;29.90;72.90
15343;DHT22;7771;48.478;8.936;2022-08-02T17:13:26;29.90;72.80
15343;DHT22;7771;48.478;8.936;2022-08-02T17:15:52;29.70;72.40
15343;DHT22;7771;48.478;8.936;2022-08-02T17:18:19;29.60;72.60
15343;DHT22;7771;48.478;8.936;2022-08-02T17:20:46;29.60;72.70
15343;DHT22;7771;48.478;8.936;2022-08-02T17:23:13;29.50;73.10
15343;DHT22;7771;48.478;8.936;2022-08-02T17:25:39;29.50;73.40
15343;DHT22;7771;48.478;8.936;2022-08-02T17:28:06;29.40;73.80
15343;DHT22;7771;48.478;8.936;2022-08-02T17:30:33;29.40;73.70
15343;DHT22;7771;48.478;8.936;2022-08-02T17:32:59;29.40;73.60
15343;DHT22;7771;48.478;8.936;2022-08-02T17:35:27;29.40;73.70
15343;DHT22;7771;48.478;8.936;2022-08-02T17:37:54;29.30;74.00
15343;DHT22;7771;48.478;8.936;2022-08-02T17:40:21;29.20;74.10
15343;DHT22;7771;48.478;8.936;2022-08-02T17:42:49;29.20;74.70
15343;DHT22;7771;48.478;8.936;2022-08-02T17:45:16;29.20;74.60
15343;DHT22;7771;48.478;8.936;2022-08-02T17:47:43;29.10;74.30
15343;DHT22;7771;48.478;8.936;2022-08-02T17:50:10;29.00;74.90
15343;DHT22;7771;48.478;8.936;2022-08-02T17:52:37;29.00;75.70
15343;DHT22;7771;48.478;8.936;2022-08-02T17:55:05;28.90;75.50
15343;DHT22;7771;48.478;8.936;2022-08-02T17:57:31;28.80;76.00
15343;DHT22;7771;48.478;8.936;2022-08-02T17:59:58;28.80;76.40
15343;DHT22;7771;48.478;8.936;2022-08-02T18:02:25;28.70;77.30
15343;DHT22;7771;48.478;8.936;2022-08-02T18:04:53;28.70;77.50
15343;DHT22;7771;48.478;8.936;2022-08-02T18:07:20;28.60;77.10
15343;DHT22;7771;48.478;8.936;2022-08-02T18:09:46;28.60;77.60
15343;DHT22;7771;48.478;8.936;2022-08-02T18:12:14;28.50;78.10
15343;DHT22;7771;48.478;8.936;2022-08-02T18:14:40;28.50;77.70
15343;DHT22;7771;48.478;8.936;2022-08-02T18:17:08;28.40;77.70
15343;DHT22;7771;48.478;8.936;2022-08-02T18:19:35;28.40;78.60
15343;DHT22;7771;48.478;8.936;2022-08-02T18:22:02;28.30;78.50
15343;DHT22;7771;48.478;8.936;2022-08-02T18:24:30;28.40;79.10
15343;DHT22;7771;48.478;8.936;2022-08-02T18:26:57;28.30;79.10
15343;DHT22;7771;48.478;8.936;2022-08-02T18:29:24;28.20;79.40
15343;DHT22;7771;48.478;8.936;2022-08-02T18:31:52;28.20;79.70
15343;DHT22;7771;48.478;8.936;2022-08-02T18:34:19;28.10;79.80
15343;DHT22;7771;48.478;8.936;2022-08-02T18:36:46;28.10;80.20
15343;DHT22;7771;48.478;8.936;2022-08-02T18:39:14;28.00;80.50
15343;DHT22;7771;48.478;8.936;2022-08-02T18:41:41;28.00;80.50
15343;DHT22;7771;48.478;8.936;2022-08-02T18:44:09;27.90;80.60
15343;DHT22;7771;48.478;8.936;2022-08-02T18:46:35;27.90;80.40
15343;DHT22;7771;48.478;8.936;2022-08-02T18:49:02;27.80;80.60
15343;DHT22;7771;48.478;8.936;2022-08-02T18:51:28;27.80;81.10
15343;DHT22;7771;48.478;8.936;2022-08-02T18:53:55;27.80;81.10
15343;DHT22;7771;48.478;8.936;2022-08-02T18:56:21;27.70;81.30